Time;durP1;ratioP1;P1;durP2;ratioP2;P2;SDS_P1;SDS_P2;PMS_P1;PMS_P2;Temp;Humidity;BMP_temperature;BMP_pressure;BME280_temperature;BME280_humidity;BME280_pressure;Samples;Min_cycle;Max_cycle;Signal;HPM_P1;HPM_P2
2022/04/19 00:00:36;;;;;;;15.30;8.32;;;8.10;99.90;;;;;;5072844;28;20024;-66
2022/04/19 00:03:02;;;;;;;12.73;7.75;;;8.10;99.90;;;;;;5072163;28;20033;-66
2022/04/19 00:05:29;;;;;;;16.40;9.05;;;8.00;99.90;;;;;;5072239;28;20075;-66
2022/04/19 00:07:55;;;;;;;13.40;8.45;;;8.00;99.90;;;;;;5073940;28;20080;-66
2022/04/19 00:10:20;;;;;;;16.08;9.43;;;7.90;99.90;;;;;;5067127;28;20033;-66
2022/04/19 00:12:47;;;;;;;14.68;9.27;;;7.80;99.90;;;;;;5074882;28;20029;-67
2022/04/19 00:15:13;;;;;;;17.45;9.35;;;7.80;99.90;;;;;;5068683;28;20036;-66
2022/04/19 00:17:38;;;;;;;16.77;8.88;;;7.80;99.90;;;;;;5070019;28;20074;-66
2022/04/19 00:20:06;;;;;;;16.55;9.88;;;7.70;99.90;;;;;;5070510;28;20037;-66
2022/04/19 00:22:31;;;;;;;17.05;10.07;;;7.70;99.90;;;;;;5052291;28;20045;-66
2022/04/19 00:24:57;;;;;;;17.15;10.82;;;7.70;99.90;;;;;;5069322;28;20077;-66
2022/04/19 00:27:23;;;;;;;18.42;10.52;;;7.60;99.90;;;;;;5071398;28;20033;-67
2022/04/19 00:29:49;;;;;;;17.58;10.40;;;7.60;99.90;;;;;;5054365;28;20047;-67
2022/04/19 00:32:15;;;;;;;18.83;10.70;;;7.60;99.90;;;;;;5069195;28;20108;-67
2022/04/19 00:34:41;;;;;;;17.88;10.23;;;7.60;99.90;;;;;;5073508;28;20063;-67
2022/04/19 00:37:07;;;;;;;16.80;10.02;;;7.50;99.90;;;;;;5075171;28;20038;-65
2022/04/19 00:39:33;;;;;;;20.92;9.52;;;7.40;99.90;;;;;;5073773;28;20037;-65
2022/04/19 00:41:59;;;;;;;18.80;11.00;;;7.40;99.90;;;;;;5072110;28;20040;-66
2022/04/19 00:44:25;;;;;;;16.85;10.45;;;7.30;99.90;;;;;;5052707;28;20109;-66
2022/04/19 00:46:51;;;;;;;18.27;10.40;;;7.20;99.90;;;;;;5073351;28;20025;-66
2022/04/19 00:49:17;;;;;;;17.17;10.57;;;7.20;99.90;;;;;;5074478;28;20024;-66
2022/04/19 00:51:44;;;;;;;17.67;10.70;;;7.10;99.90;;;;;;5075577;28;20410;-66
2022/04/19 00:54:10;;;;;;;17.35;10.75;;;7.10;99.90;;;;;;5071708;28;20058;-66
2022/04/19 00:56:37;;;;;;;21.85;12.00;;;7.10;99.90;;;;;;5074086;28;20111;-65
2022/04/19 00:59:07;;;;;;;20.52;11.70;;;7.10;99.90;;;;;;5077520;28;20024;-65
2022/04/19 01:01:33;;;;;;;19.42;12.00;;;7.10;99.90;;;;;;5069316;28;20060;-66
2022/04/19 01:03:59;;;;;;;22.08;12.68;;;7.10;99.90;;;;;;5072414;28;20032;-65
2022/04/19 01:06:25;;;;;;;20.80;11.43;;;7.10;99.90;;;;;;5075657;28;20024;-66
2022/04/19 01:08:51;;;;;;;20.60;11.38;;;7.10;99.90;;;;;;5073722;28;20081;-66
2022/04/19 01:14:02;;;;;;;17.33;10.88;;;7.20;99.90;;;;;;5059063;28;20058;-66
2022/04/19 01:16:28;;;;;;;21.35;11.70;;;7.10;99.90;;;;;;5075327;28;20016;-65
2022/04/19 01:18:55;;;;;;;21.25;12.57;;;7.10;99.90;;;;;;5069844;28;20029;-66
2022/04/19 01:21:21;;;;;;;17.88;10.85;;;7.00;99.90;;;;;;5057169;28;20017;-66
2022/04/19 01:23:47;;;;;;;19.77;11.15;;;7.00;99.90;;;;;;5053449;28;20394;-66
2022/04/19 01:26:13;;;;;;;19.25;12.00;;;7.00;99.90;;;;;;5073822;28;20801;-67
2022/04/19 01:28:38;;;;;;;18.55;11.02;;;7.10;99.90;;;;;;5074004;28;20025;-67
2022/04/19 01:31:06;;;;;;;20.17;11.15;;;7.10;99.90;;;;;;5074005;28;20080;-67
2022/04/19 01:33:31;;;;;;;18.27;11.10;;;7.10;99.90;;;;;;5054225;28;20035;-67
2022/04/19 01:35:57;;;;;;;17.58;11.00;;;7.10;99.90;;;;;;5066127;28;20053;-66
2022/04/19 01:38:23;;;;;;;19.65;10.95;;;7.10;99.90;;;;;;5076547;28;20038;-67
2022/04/19 01:40:48;;;;;;;20.75;11.57;;;7.10;99.90;;;;;;5072422;28;20043;-66
2022/04/19 01:43:14;;;;;;;18.23;10.43;;;7.10;99.90;;;;;;5072798;28;20375;-66
2022/04/19 01:45:41;;;;;;;18.45;11.40;;;7.10;99.90;;;;;;5069504;28;20021;-66
2022/04/19 01:48:08;;;;;;;17.52;10.30;;;7.00;99.90;;;;;;5071288;28;20029;-66
2022/04/19 01:50:37;;;;;;;15.77;9.85;;;7.10;99.90;;;;;;5072550;28;20043;-66
2022/04/19 01:53:03;;;;;;;18.02;10.27;;;7.10;99.90;;;;;;5073846;28;20092;-66
2022/04/19 01:55:29;;;;;;;16.88;10.50;;;6.90;99.90;;;;;;5074329;28;20076;-66
2022/04/19 01:57:59;;;;;;;16.38;9.35;;;6.90;99.90;;;;;;5069345;28;20119;-66
2022/04/19 02:00:26;;;;;;;18.80;10.32;;;6.80;99.90;;;;;;5072433;28;20029;-66
2022/04/19 02:02:54;;;;;;;18.20;10.98;;;6.90;99.90;;;;;;5073060;28;20033;-66
2022/04/19 02:05:20;;;;;;;17.75;10.30;;;6.80;99.90;;;;;;5073133;28;20035;-66
2022/04/19 02:07:46;;;;;;;17.60;11.57;;;6.80;99.90;;;;;;5075075;28;20058;-66
2022/04/19 02:10:16;;;;;;;18.15;10.93;;;6.70;99.90;;;;;;5069598;28;20040;-66
2022/04/19 02:12:42;;;;;;;17.83;10.55;;;6.70;99.90;;;;;;5072383;28;20024;-66
2022/04/19 02:15:08;;;;;;;17.88;10.30;;;6.70;99.90;;;;;;5065924;28;20101;-66
2022/04/19 02:17:41;;;;;;;18.42;10.70;;;6.60;99.90;;;;;;5073250;28;20101;-66
2022/04/19 02:20:11;;;;;;;17.90;11.05;;;6.50;99.90;;;;;;5053093;28;20115;-66
2022/04/19 02:22:39;;;;;;;16.15;9.63;;;6.40;99.90;;;;;;5073740;28;20028;-67
2022/04/19 02:25:05;;;;;;;17.95;10.63;;;6.30;99.90;;;;;;5071713;28;20778;-66
2022/04/19 02:27:33;;;;;;;16.83;10.48;;;6.30;99.90;;;;;;5066750;28;20111;-66
2022/04/19 02:30:03;;;;;;;18.17;10.90;;;6.30;99.90;;;;;;5054300;28;20033;-67
2022/04/19 02:32:29;;;;;;;16.77;10.25;;;6.30;99.90;;;;;;5072744;28;20075;-67
2022/04/19 02:34:54;;;;;;;16.45;10.07;;;6.20;99.90;;;;;;5052905;28;20259;-67
2022/04/19 02:37:20;;;;;;;18.67;10.52;;;6.10;99.90;;;;;;5075653;28;20025;-67
2022/04/19 02:39:50;;;;;;;16.10;10.48;;;6.10;99.90;;;;;;5074814;28;20082;-67
2022/04/19 02:42:17;;;;;;;17.88;10.23;;;6.00;99.90;;;;;;5072639;28;20025;-67
2022/04/19 02:44:42;;;;;;;17.50;10.38;;;6.00;99.90;;;;;;5072381;28;20084;-68
2022/04/19 02:47:08;;;;;;;16.55;10.70;;;6.00;99.90;;;;;;5072651;28;20064;-67
2022/04/19 02:49:34;;;;;;;20.20;10.65;;;5.90;99.90;;;;;;5073957;28;20052;-66
2022/04/19 02:52:01;;;;;;;17.48;10.20;;;6.00;99.90;;;;;;5074226;28;20017;-66
2022/04/19 02:54:26;;;;;;;20.17;12.55;;;5.90;99.90;;;;;;5075028;28;20142;-67
2022/04/19 02:56:52;;;;;;;19.05;11.77;;;5.90;99.90;;;;;;5070632;28;20055;-65
2022/04/19 02:59:18;;;;;;;19.23;11.45;;;5.90;99.90;;;;;;5056053;28;20020;-66
2022/04/19 03:01:43;;;;;;;19.85;11.23;;;5.90;99.90;;;;;;5071308;28;20389;-66
2022/04/19 03:04:09;;;;;;;18.42;11.35;;;5.90;99.90;;;;;;5073235;28;20032;-67
2022/04/19 03:06:35;;;;;;;19.92;10.73;;;5.90;99.90;;;;;;5054087;28;20082;-66
2022/04/19 03:09:02;;;;;;;20.00;10.95;;;5.90;99.90;;;;;;5074280;28;20024;-66
2022/04/19 03:11:28;;;;;;;19.85;11.35;;;5.90;99.90;;;;;;5070998;28;20062;-66
2022/04/19 03:13:54;;;;;;;20.42;11.38;;;5.90;99.90;;;;;;5071790;28;20024;-66
2022/04/19 03:16:20;;;;;;;19.90;11.07;;;5.90;99.90;;;;;;5070656;28;20043;-66
2022/04/19 03:18:46;;;;;;;17.85;10.32;;;5.90;99.90;;;;;;5070380;28;20025;-66
2022/04/19 03:21:12;;;;;;;21.52;11.75;;;5.90;99.90;;;;;;5073421;28;20031;-66
2022/04/19 03:29:08;;;;;;;20.23;10.82;;;5.90;99.90;;;;;;5072532;28;20112;-66
2022/04/19 03:31:34;;;;;;;19.33;11.07;;;6.00;99.90;;;;;;5071070;28;20033;-66
2022/04/19 03:34:04;;;;;;;17.60;10.98;;;6.00;99.90;;;;;;5072941;28;20060;-66
2022/04/19 03:36:30;;;;;;;20.42;11.35;;;6.00;99.90;;;;;;5071190;28;20036;-66
2022/04/19 03:38:56;;;;;;;18.70;11.65;;;6.00;99.90;;;;;;5069451;28;20021;-66
2022/04/19 03:41:22;;;;;;;17.67;10.73;;;6.00;99.90;;;;;;5069899;28;20032;-66
2022/04/19 03:43:48;;;;;;;20.92;11.98;;;5.90;99.90;;;;;;5072468;28;20053;-67
2022/04/19 03:46:14;;;;;;;20.35;11.75;;;5.90;99.90;;;;;;5076416;28;20074;-67
2022/04/19 03:48:39;;;;;;;19.30;11.27;;;5.90;99.90;;;;;;5067388;28;20064;-66
2022/04/19 03:51:05;;;;;;;22.70;11.98;;;5.90;99.90;;;;;;5070120;28;20748;-67
2022/04/19 03:53:31;;;;;;;18.50;11.75;;;5.90;99.90;;;;;;5071209;28;20478;-67
2022/04/19 03:55:58;;;;;;;21.20;10.93;;;5.90;99.90;;;;;;5066581;28;20032;-66
2022/04/19 03:58:27;;;;;;;20.25;11.45;;;5.90;99.90;;;;;;5067550;28;20036;-66
2022/04/19 04:00:54;;;;;;;18.23;10.95;;;5.90;99.90;;;;;;5069342;28;20025;-66
2022/04/19 04:03:20;;;;;;;22.17;12.20;;;5.90;99.90;;;;;;5074160;28;20031;-65
2022/04/19 04:05:45;;;;;;;21.15;12.18;;;5.90;99.90;;;;;;5070322;28;20064;-65
2022/04/19 04:08:11;;;;;;;23.17;12.30;;;5.90;99.90;;;;;;5065736;28;20071;-66
2022/04/19 04:10:37;;;;;;;19.13;12.35;;;5.90;99.90;;;;;;5072400;28;20020;-66
2022/04/19 04:13:04;;;;;;;19.80;11.60;;;5.90;99.90;;;;;;5068879;28;20029;-66
2022/04/19 04:15:30;;;;;;;19.52;11.20;;;5.90;99.90;;;;;;5039325;28;20098;-65
2022/04/19 04:17:55;;;;;;;20.55;11.90;;;5.80;99.90;;;;;;5069470;28;21158;-66
2022/04/19 04:20:21;;;;;;;19.30;11.23;;;5.80;99.90;;;;;;5056709;28;20052;-66
2022/04/19 04:22:46;;;;;;;33.88;12.95;;;5.80;99.90;;;;;;5071671;28;20039;-66
2022/04/19 04:25:12;;;;;;;22.23;12.35;;;5.70;99.90;;;;;;5057840;28;20020;-66
2022/04/19 04:27:38;;;;;;;19.75;11.38;;;5.80;99.90;;;;;;5072659;28;20039;-65
2022/04/19 04:30:06;;;;;;;20.60;12.00;;;5.80;99.90;;;;;;5075027;28;20083;-65
2022/04/19 04:32:32;;;;;;;19.23;11.90;;;5.80;99.90;;;;;;5073929;28;20032;-65
2022/04/19 04:34:58;;;;;;;18.92;12.13;;;5.80;99.90;;;;;;5078658;28;20063;-66
2022/04/19 04:37:23;;;;;;;18.15;11.25;;;5.80;99.90;;;;;;5075431;28;20025;-65
2022/04/19 04:39:49;;;;;;;17.30;11.02;;;5.80;99.90;;;;;;5076711;28;20042;-66
2022/04/19 04:42:15;;;;;;;18.10;11.95;;;5.80;99.90;;;;;;5078521;28;20020;-65
2022/04/19 04:44:41;;;;;;;19.88;12.05;;;5.90;99.90;;;;;;5075600;28;20040;-66
2022/04/19 04:49:52;;;;;;;20.13;11.32;;;5.80;99.90;;;;;;5076997;28;20465;-65
2022/04/19 04:52:21;;;;;;;18.27;11.52;;;5.90;99.90;;;;;;5075240;28;20137;-65
2022/04/19 04:54:46;;;;;;;17.85;10.93;;;5.90;99.90;;;;;;5075468;28;20111;-65
2022/04/19 04:57:12;;;;;;;21.05;12.15;;;5.80;99.90;;;;;;5079953;28;20501;-66
2022/04/19 04:59:38;;;;;;;20.50;11.80;;;5.90;99.90;;;;;;5050544;28;20029;-66
2022/04/19 05:02:04;;;;;;;17.98;11.23;;;5.90;99.90;;;;;;5078006;28;20138;-66
2022/04/19 05:04:32;;;;;;;19.88;12.10;;;6.00;99.90;;;;;;5079752;28;20027;-66
2022/04/19 05:06:58;;;;;;;18.25;11.15;;;6.10;99.90;;;;;;5074851;28;20024;-66
2022/04/19 05:09:24;;;;;;;18.45;11.85;;;6.10;99.90;;;;;;5064538;28;20547;-67
2022/04/19 05:11:52;;;;;;;20.58;11.25;;;6.10;99.90;;;;;;5079852;28;20048;-66
2022/04/19 05:14:19;;;;;;;18.13;11.80;;;6.10;99.90;;;;;;5076930;28;20024;-66
2022/04/19 05:16:45;;;;;;;19.15;11.57;;;6.20;99.90;;;;;;5077152;28;20120;-67
2022/04/19 05:19:11;;;;;;;19.92;12.25;;;6.20;99.90;;;;;;5072061;28;20031;-67
2022/04/19 05:21:39;;;;;;;21.08;11.45;;;6.30;99.90;;;;;;5056590;28;20025;-67
2022/04/19 05:24:06;;;;;;;19.63;11.00;;;6.30;99.90;;;;;;5077250;28;20096;-66
2022/04/19 05:26:32;;;;;;;18.85;11.90;;;6.40;99.90;;;;;;5078989;28;20096;-67
2022/04/19 05:28:58;;;;;;;19.00;11.43;;;6.50;99.90;;;;;;5078967;28;20036;-66
2022/04/19 05:31:24;;;;;;;18.40;11.48;;;6.50;99.90;;;;;;5077378;28;20021;-67
2022/04/19 05:33:50;;;;;;;18.40;11.65;;;6.70;99.90;;;;;;5080373;28;20036;-67
2022/04/19 05:36:16;;;;;;;18.33;11.95;;;6.90;99.90;;;;;;5078273;28;20071;-67
2022/04/19 05:38:42;;;;;;;21.27;11.73;;;6.90;99.90;;;;;;5080269;28;20781;-66
2022/04/19 05:41:08;;;;;;;18.65;11.00;;;7.00;99.90;;;;;;5077995;28;20016;-67
2022/04/19 05:43:33;;;;;;;16.65;10.82;;;7.10;99.90;;;;;;5058628;28;20036;-66
2022/04/19 05:45:59;;;;;;;17.00;10.90;;;7.40;99.90;;;;;;5079237;28;20024;-66
2022/04/19 05:48:25;;;;;;;18.67;10.63;;;7.60;99.90;;;;;;5075896;28;20293;-69
2022/04/19 05:50:51;;;;;;;19.23;10.68;;;7.90;99.90;;;;;;5061952;28;20036;-66
2022/04/19 05:53:17;;;;;;;22.83;12.05;;;8.60;99.90;;;;;;5081009;28;21011;-66
2022/04/19 05:55:43;;;;;;;17.75;10.30;;;9.50;99.90;;;;;;5082008;28;20580;-72
2022/04/19 05:58:09;;;;;;;18.08;10.75;;;10.00;99.90;;;;;;5077550;28;20067;-70
2022/04/19 06:00:35;;;;;;;18.20;10.68;;;10.40;99.90;;;;;;5079607;28;20048;-70
2022/04/19 06:05:45;;;;;;;18.45;11.30;;;11.30;99.90;;;;;;5081194;28;20047;-67
2022/04/19 06:08:10;;;;;;;17.00;10.30;;;11.10;99.90;;;;;;5081588;28;20020;-65
2022/04/19 06:10:36;;;;;;;16.15;10.60;;;11.70;99.90;;;;;;5058135;28;21676;-66
2022/04/19 06:13:02;;;;;;;15.60;9.50;;;12.40;99.90;;;;;;5076730;28;21799;-66
2022/04/19 06:15:28;;;;;;;19.63;10.43;;;12.60;99.90;;;;;;5075277;28;20486;-66
2022/04/19 06:17:53;;;;;;;16.02;9.82;;;12.70;99.90;;;;;;5075408;28;20033;-66
2022/04/19 06:20:19;;;;;;;17.50;10.43;;;13.50;99.90;;;;;;5079852;28;20115;-66
2022/04/19 06:22:45;;;;;;;16.25;9.13;;;14.00;99.80;;;;;;5058221;28;20040;-66
2022/04/19 06:25:12;;;;;;;16.40;9.68;;;14.20;96.90;;;;;;5080086;28;20025;-66
2022/04/19 06:27:39;;;;;;;13.90;9.15;;;14.20;94.10;;;;;;5072282;28;20086;-66
2022/04/19 06:30:05;;;;;;;15.82;9.32;;;14.60;97.40;;;;;;5079493;28;20413;-66
2022/04/19 06:32:31;;;;;;;17.77;9.57;;;15.00;96.30;;;;;;5075272;28;20039;-65
2022/04/19 06:34:56;;;;;;;14.60;9.40;;;15.60;88.40;;;;;;5078727;28;20032;-66
2022/04/19 06:37:22;;;;;;;15.77;8.98;;;16.30;83.40;;;;;;5077868;28;20056;-66
2022/04/19 06:39:49;;;;;;;15.75;8.65;;;16.80;72.50;;;;;;5059334;28;20047;-66
2022/04/19 06:42:15;;;;;;;15.05;8.80;;;17.30;68.00;;;;;;5079878;28;20548;-67
2022/04/19 06:44:40;;;;;;;14.95;8.50;;;18.20;73.10;;;;;;5075120;28;20107;-67
2022/04/19 06:47:07;;;;;;;17.80;8.98;;;18.10;58.10;;;;;;5082158;28;20506;-66
2022/04/19 06:49:33;;;;;;;16.33;8.30;;;18.20;59.50;;;;;;5080647;28;20029;-66
2022/04/19 06:51:59;;;;;;;14.18;8.40;;;18.70;59.20;;;;;;5083131;28;20025;-66
2022/04/19 06:54:25;;;;;;;14.20;8.15;;;18.50;57.30;;;;;;5083297;28;20025;-66
2022/04/19 06:56:53;;;;;;;12.93;8.15;;;18.30;57.80;;;;;;5082271;28;20644;-66
2022/04/19 06:59:21;;;;;;;13.52;7.95;;;17.80;64.30;;;;;;5081223;28;20033;-66
2022/04/19 07:01:46;;;;;;;15.13;8.23;;;17.30;63.00;;;;;;5079363;28;20021;-66
2022/04/19 07:04:12;;;;;;;14.73;8.02;;;17.10;65.10;;;;;;5064204;28;20033;-67
2022/04/19 07:06:37;;;;;;;13.73;7.90;;;16.90;73.90;;;;;;5068804;28;20058;-67
2022/04/19 07:09:03;;;;;;;14.18;7.38;;;16.40;79.10;;;;;;5075543;28;20048;-67
2022/04/19 07:11:30;;;;;;;13.68;7.45;;;16.40;78.20;;;;;;5075173;28;20052;-66
2022/04/19 07:13:56;;;;;;;14.13;7.63;;;16.10;77.10;;;;;;5077176;28;20041;-66
2022/04/19 07:16:21;;;;;;;13.73;7.50;;;15.90;87.70;;;;;;5082149;28;20055;-66
2022/04/19 07:18:47;;;;;;;15.57;7.68;;;16.30;91.80;;;;;;5079685;28;20025;-66
2022/04/19 07:26:44;;;;;;;14.27;7.93;;;16.70;93.20;;;;;;5080425;28;20063;-67
2022/04/19 07:29:15;;;;;;;13.27;7.53;;;16.70;71.50;;;;;;5083270;28;20028;-66
2022/04/19 07:31:42;;;;;;;14.60;7.00;;;16.90;87.90;;;;;;5062140;28;20028;-66
2022/04/19 07:34:08;;;;;;;12.82;7.18;;;16.70;80.50;;;;;;5080877;28;20016;-67
2022/04/19 07:36:35;;;;;;;12.25;7.15;;;16.20;77.20;;;;;;5063056;28;20093;-66
2022/04/19 07:39:03;;;;;;;14.38;6.95;;;16.40;81.40;;;;;;5082216;28;20021;-66
2022/04/19 07:41:30;;;;;;;13.48;6.75;;;17.00;92.30;;;;;;5062687;28;20040;-66
2022/04/19 07:43:56;;;;;;;14.98;6.65;;;16.80;76.60;;;;;;5079800;28;20028;-66
2022/04/19 07:46:21;;;;;;;15.50;7.15;;;17.70;71.70;;;;;;5081189;28;20050;-67
2022/04/19 07:48:48;;;;;;;13.73;6.93;;;17.10;62.60;;;;;;5062601;28;20024;-66
2022/04/19 07:51:15;;;;;;;15.15;6.38;;;18.90;66.80;;;;;;5081938;28;20032;-66
2022/04/19 07:53:41;;;;;;;13.13;6.70;;;20.10;56.90;;;;;;5079388;28;20029;-67
2022/04/19 07:56:07;;;;;;;11.52;6.05;;;21.50;54.90;;;;;;5060023;28;20045;-65
2022/04/19 07:58:33;;;;;;;12.15;6.20;;;22.40;49.60;;;;;;5080225;28;20410;-66
2022/04/19 08:01:01;;;;;;;12.90;6.10;;;22.70;48.10;;;;;;5077403;28;20079;-65
2022/04/19 08:03:27;;;;;;;14.63;6.53;;;23.00;44.20;;;;;;5080558;28;20080;-67
2022/04/19 08:05:53;;;;;;;10.93;6.00;;;23.00;42.70;;;;;;5078401;28;20035;-67
2022/04/19 08:08:21;;;;;;;10.23;4.85;;;24.00;44.70;;;;;;5080321;28;20025;-67
2022/04/19 08:10:47;;;;;;;12.05;6.28;;;23.70;42.90;;;;;;5080694;28;20475;-67
2022/04/19 08:13:13;;;;;;;12.20;5.65;;;23.80;40.70;;;;;;5081764;28;20029;-67
2022/04/19 08:15:39;;;;;;;13.90;6.38;;;24.10;42.30;;;;;;5080700;28;20482;-67
2022/04/19 08:18:05;;;;;;;11.25;5.45;;;23.50;40.50;;;;;;5059188;28;20117;-67
2022/04/19 08:20:31;;;;;;;10.60;5.70;;;23.70;42.50;;;;;;5061787;28;20070;-67
2022/04/19 08:22:57;;;;;;;10.95;5.60;;;24.60;40.20;;;;;;5068503;28;20431;-67
2022/04/19 08:25:22;;;;;;;11.02;6.07;;;25.40;41.90;;;;;;5078613;28;20068;-67
2022/04/19 08:27:48;;;;;;;11.52;6.45;;;24.90;39.70;;;;;;5040429;28;20075;-67
2022/04/19 08:30:16;;;;;;;10.27;5.95;;;26.30;39.60;;;;;;5075284;28;20060;-67
2022/04/19 08:32:51;;;;;;;10.68;5.85;;;26.90;38.00;;;;;;5080585;28;20021;-67
2022/04/19 08:35:19;;;;;;;8.80;4.82;;;26.20;37.20;;;;;;5052659;28;20072;-67
2022/04/19 08:37:48;;;;;;;10.77;5.60;;;26.10;35.80;;;;;;5079717;28;20035;-68
2022/04/19 08:40:14;;;;;;;11.38;5.75;;;26.40;40.60;;;;;;5080492;28;20032;-67
2022/04/19 08:42:41;;;;;;;9.68;5.40;;;26.60;37.80;;;;;;5082633;28;20051;-68
2022/04/19 08:45:09;;;;;;;13.20;6.75;;;27.40;37.70;;;;;;5061518;28;20541;-67
2022/04/19 08:47:42;;;;;;;10.98;6.15;;;26.60;35.90;;;;;;5075477;28;20514;-68
2022/04/19 08:50:11;;;;;;;11.43;5.97;;;27.10;37.60;;;;;;5079639;28;20035;-68
2022/04/19 08:52:38;;;;;;;12.60;6.55;;;26.90;36.20;;;;;;5079623;28;20044;-68
2022/04/19 08:57:50;;;;;;;12.82;6.72;;;26.90;37.10;;;;;;5039589;28;20096;-68
2022/04/19 09:00:22;;;;;;;9.57;5.50;;;26.30;35.20;;;;;;5040509;28;20065;-67
2022/04/19 09:02:48;;;;;;;;;;;27.00;36.90;;;;;;5040682;28;20037;-68
2022/04/19 09:05:14;;;;;;;11.02;5.65;;;26.80;36.30;;;;;;5040235;28;19905;-68
2022/04/19 09:07:41;;;;;;;10.80;6.05;;;26.60;36.10;;;;;;5042230;28;20083;-68
2022/04/19 09:10:11;;;;;;;10.48;5.68;;;25.50;36.40;;;;;;5036353;28;20028;-68
2022/04/19 09:12:37;;;;;;;10.85;5.75;;;25.90;39.10;;;;;;5043461;28;20045;-68
2022/04/19 09:15:06;;;;;;;10.30;5.57;;;25.20;40.70;;;;;;5042732;28;20386;-67
2022/04/19 09:17:35;;;;;;;11.68;5.75;;;24.40;40.90;;;;;;5032510;28;20033;-67
2022/04/19 09:20:21;;;;;;;10.75;5.93;;;23.60;42.30;;;;;;5043479;28;20022;-67
2022/04/19 09:22:50;;;;;;;10.27;5.15;;;23.50;40.60;;;;;;5040573;28;20064;-68
2022/04/19 09:25:27;;;;;;;8.02;3.33;;;22.60;41.60;;;;;;5040531;28;20068;-67
2022/04/19 09:27:57;;;;;;;9.70;3.33;;;22.90;42.10;;;;;;5029414;28;20041;-67
2022/04/19 09:30:31;;;;;;;7.88;3.75;;;22.00;39.90;;;;;;5044098;28;20041;-67
2022/04/19 09:33:08;;;;;;;6.93;3.22;;;22.40;42.10;;;;;;5040819;28;20018;-67
2022/04/19 09:35:40;;;;;;;6.45;2.63;;;21.40;39.50;;;;;;5043399;28;20037;-68
2022/04/19 09:38:08;;;;;;;6.03;2.47;;;21.70;38.60;;;;;;5045348;28;20139;-67
2022/04/19 09:40:38;;;;;;;7.00;2.65;;;22.10;41.40;;;;;;5043309;28;20029;-67
2022/04/19 09:43:12;;;;;;;8.88;2.75;;;22.40;41.30;;;;;;5042301;28;20025;-67
2022/04/19 09:45:54;;;;;;;7.53;2.72;;;23.40;39.40;;;;;;5043532;28;20056;-68
2022/04/19 09:48:27;;;;;;;9.57;2.20;;;24.10;36.80;;;;;;5037348;28;20044;-68
2022/04/19 09:50:55;;;;;;;8.07;2.90;;;24.90;35.70;;;;;;5043668;28;20037;-68
2022/04/19 09:53:23;;;;;;;7.82;2.88;;;26.00;34.30;;;;;;5038205;28;20026;-65
2022/04/19 09:55:52;;;;;;;6.20;2.40;;;26.30;31.80;;;;;;5061672;28;20052;-66
2022/04/19 09:58:19;;;;;;;6.95;2.47;;;25.50;31.10;;;;;;5079332;28;20368;-66
2022/04/19 10:00:46;;;;;;;5.43;2.20;;;26.30;29.80;;;;;;5073728;28;20032;-66
2022/04/19 10:08:41;;;;;;;5.47;1.90;;;26.70;30.20;;;;;;5081859;28;20068;-75
2022/04/19 10:11:09;;;;;;;6.38;1.95;;;27.80;31.60;;;;;;5063249;28;20025;-76
2022/04/19 10:13:37;;;;;;;16.30;2.72;;;27.80;28.60;;;;;;5061670;28;20084;-74
2022/04/19 10:16:08;;;;;;;6.70;2.20;;;28.00;29.50;;;;;;5063076;28;20070;-74
2022/04/19 10:18:34;;;;;;;5.15;2.00;;;27.50;29.00;;;;;;5043827;28;20028;-73
2022/04/19 10:21:04;;;;;;;7.35;2.40;;;27.30;29.80;;;;;;5047967;28;20033;-75
2022/04/19 10:23:38;;;;;;;5.82;1.90;;;26.20;26.80;;;;;;5059416;28;20115;-76
2022/04/19 10:26:13;;;;;;;5.63;2.10;;;26.20;29.10;;;;;;5062342;28;20108;-77
2022/04/19 10:28:39;;;;;;;6.05;2.55;;;27.00;28.50;;;;;;5053108;28;20086;-76
2022/04/19 10:31:05;;;;;;;8.30;2.35;;;25.90;28.00;;;;;;5055409;28;20032;-77
2022/04/19 10:33:50;;;;;;;6.63;2.70;;;25.50;31.30;;;;;;5047043;28;20749;-77
2022/04/19 10:36:20;;;;;;;6.53;2.22;;;25.80;30.20;;;;;;5060846;28;20056;-77
2022/04/19 10:39:08;;;;;;;6.78;1.70;;;25.10;30.90;;;;;;5060306;28;20056;-77
2022/04/19 10:42:25;;;;;;;5.85;1.85;;;26.70;31.20;;;;;;5062372;28;20456;-76
2022/04/19 10:44:52;;;;;;;5.55;1.50;;;26.50;29.90;;;;;;4981862;28;20131;-76
2022/04/19 10:47:19;;;;;;;11.90;1.90;;;26.50;29.80;;;;;;5036754;28;20039;-76
2022/04/19 10:50:05;;;;;;;6.50;1.90;;;27.00;29.00;;;;;;5053134;28;20033;-76
2022/04/19 10:52:38;;;;;;;4.75;1.60;;;26.60;29.10;;;;;;5052896;28;20020;-76
2022/04/19 10:55:11;;;;;;;5.72;1.75;;;24.90;29.80;;;;;;5060020;28;20054;-76
2022/04/19 11:00:31;;;;;;;5.38;1.77;;;26.10;30.50;;;;;;5078065;28;20044;-76
2022/04/19 11:03:19;;;;;;;6.95;2.13;;;24.80;29.40;;;;;;5058216;28;20024;-75
2022/04/19 11:05:46;;;;;;;5.63;1.52;;;26.40;32.70;;;;;;5069093;28;20074;-74
2022/04/19 11:08:24;;;;;;;8.77;1.90;;;27.50;29.70;;;;;;5057221;28;20385;-74
2022/04/19 11:10:51;;;;;;;5.75;1.30;;;26.40;30.30;;;;;;5071628;28;20125;-74
2022/04/19 11:13:19;;;;;;;9.93;0.77;;;25.10;31.60;;;;;;5076691;28;20480;-74
2022/04/19 11:16:00;;;;;;;3.13;0.95;;;26.10;31.40;;;;;;5070905;28;20041;-76
2022/04/19 11:18:30;;;;;;;3.20;0.70;;;25.20;32.40;;;;;;5051101;28;20494;-76
2022/04/19 11:21:02;;;;;;;2.60;0.70;;;25.50;31.20;;;;;;5058701;28;20028;-76
2022/04/19 11:23:31;;;;;;;0.52;0.17;;;26.80;31.10;;;;;;5056989;28;20143;-76
2022/04/19 11:25:57;;;;;;;1.55;0.45;;;24.40;30.00;;;;;;5075348;28;20021;-76
2022/04/19 11:28:31;;;;;;;0.20;0.10;;;23.50;31.90;;;;;;5076930;28;20032;-75
2022/04/19 11:30:57;;;;;;;0.00;0.00;;;23.70;32.50;;;;;;5039460;28;20036;-76
2022/04/19 11:33:24;;;;;;;0.00;0.00;;;23.70;34.60;;;;;;5055882;28;20020;-76
2022/04/19 11:36:12;;;;;;;0.20;0.10;;;24.80;35.50;;;;;;5050304;28;20060;-76
2022/04/19 11:38:46;;;;;;;0.00;0.00;;;24.90;34.90;;;;;;5057683;28;20811;-76
2022/04/19 11:46:44;;;;;;;0.00;0.00;;;25.70;33.40;;;;;;5061046;28;20047;-75
2022/04/19 11:49:20;;;;;;;0.00;0.00;;;26.10;34.10;;;;;;5040032;28;20035;-75
2022/04/19 11:51:51;;;;;;;0.00;0.00;;;26.20;32.80;;;;;;5076580;28;20100;-76
2022/04/19 11:54:28;;;;;;;0.30;0.30;;;24.90;33.60;;;;;;5035543;28;20098;-74
2022/04/19 11:56:56;;;;;;;0.00;0.00;;;24.80;35.20;;;;;;5031580;28;20152;-74
2022/04/19 11:59:29;;;;;;;0.28;0.28;;;23.20;35.30;;;;;;5033960;28;20046;-75
2022/04/19 12:01:56;;;;;;;0.20;0.10;;;23.80;36.80;;;;;;5016734;28;20033;-75
2022/04/19 12:04:22;;;;;;;0.00;0.00;;;24.40;36.70;;;;;;5031331;28;20026;-75
2022/04/19 12:06:57;;;;;;;0.05;0.05;;;25.40;34.50;;;;;;5015496;28;20192;-74
2022/04/19 12:09:24;;;;;;;0.00;0.00;;;24.80;34.00;;;;;;5033648;28;20056;-74
2022/04/19 12:11:51;;;;;;;0.20;0.17;;;24.60;34.60;;;;;;5030564;28;20057;-74
2022/04/19 12:14:27;;;;;;;0.15;0.10;;;23.80;35.20;;;;;;5015397;28;20037;-74
2022/04/19 12:17:06;;;;;;;0.00;0.00;;;23.70;34.00;;;;;;4993742;28;20042;-75
2022/04/19 12:19:41;;;;;;;0.00;0.00;;;24.20;35.00;;;;;;5024129;28;20125;-75
2022/04/19 12:22:21;;;;;;;0.10;0.10;;;24.20;35.20;;;;;;5026194;28;20026;-74
2022/04/19 12:24:55;;;;;;;0.00;0.00;;;23.70;34.40;;;;;;5027863;28;20029;-75
2022/04/19 12:27:26;;;;;;;0.00;0.00;;;24.30;34.70;;;;;;5034808;28;20366;-75
2022/04/19 12:30:12;;;;;;;0.00;0.00;;;24.50;34.60;;;;;;5039610;28;20033;-74
2022/04/19 12:32:58;;;;;;;0.00;0.00;;;23.70;35.60;;;;;;5037001;28;20033;-76
2022/04/19 12:35:34;;;;;;;0.28;0.10;;;24.30;34.00;;;;;;5033812;28;20066;-74
2022/04/19 12:38:07;;;;;;;0.00;0.00;;;22.00;35.20;;;;;;5012819;28;20041;-75
2022/04/19 12:40:34;;;;;;;0.00;0.00;;;23.10;38.40;;;;;;5022399;28;20111;-75
2022/04/19 12:43:00;;;;;;;0.20;0.13;;;22.80;36.80;;;;;;5013363;28;20036;-80
2022/04/19 12:45:31;;;;;;;0.17;0.10;;;22.90;36.60;;;;;;5040473;28;20029;-79
2022/04/19 12:48:00;;;;;;;0.20;0.10;;;23.00;35.40;;;;;;5042862;28;20037;-79
2022/04/19 12:50:27;;;;;;;0.20;0.10;;;22.70;35.40;;;;;;5023873;28;20033;-80
2022/04/19 12:52:53;;;;;;;0.10;0.08;;;22.50;38.20;;;;;;5025874;28;20033;-80
2022/04/19 12:55:29;;;;;;;0.00;0.00;;;22.30;38.30;;;;;;5044636;28;20121;-81
2022/04/19 12:58:08;;;;;;;0.00;0.00;;;21.90;37.10;;;;;;5025579;28;20446;-79
2022/04/19 13:00:35;;;;;;;0.10;0.10;;;22.90;39.60;;;;;;5042111;28;20365;-79
2022/04/19 13:03:01;;;;;;;0.00;0.00;;;23.20;38.10;;;;;;5042816;28;20021;-77
2022/04/19 13:13:46;;;;;;;0.45;0.40;;;23.20;35.70;;;;;;5020601;28;20053;-76
2022/04/19 13:16:12;;;;;;;0.10;0.10;;;23.00;37.50;;;;;;5037305;28;20108;-75
2022/04/19 13:18:40;;;;;;;0.10;0.10;;;22.70;36.80;;;;;;5040317;28;20092;-76
2022/04/19 13:21:06;;;;;;;0.00;0.00;;;22.20;35.90;;;;;;5022385;28;20026;-76
2022/04/19 13:23:32;;;;;;;0.10;0.10;;;22.20;36.30;;;;;;4998258;28;20025;-76
2022/04/19 13:25:58;;;;;;;0.10;0.10;;;22.40;37.60;;;;;;5055357;28;20501;-74
2022/04/19 13:28:26;;;;;;;0.30;0.10;;;22.70;37.80;;;;;;5033909;28;20163;-74